createdAt,value
2018-07-01T00:00:37.060Z,70.83
2018-07-01T00:01:47.020Z,71.5
2018-07-01T00:02:56.470Z,71.5
2018-07-01T00:04:06.445Z,71.69
2018-07-01T00:05:16.445Z,71.88
2018-07-01T00:06:26.156Z,71.78
2018-07-01T00:07:36.139Z,72.17
2018-07-01T00:08:46.123Z,72.17
2018-07-01T00:09:55.843Z,72.83
2018-07-01T00:11:05.808Z,72.64
2018-07-01T00:12:15.797Z,72.74
2018-07-01T00:13:25.754Z,72.83
2018-07-01T00:14:35.717Z,72.93
2018-07-01T00:15:45.688Z,73.03
2018-07-01T00:16:55.406Z,73.03
2018-07-01T00:18:05.380Z,73.12
2018-07-01T00:19:14.859Z,73.69
2018-07-01T00:20:24.828Z,73.5
2018-07-01T00:21:34.786Z,73.32
2018-07-01T00:22:44.758Z,73.6
2018-07-01T00:23:54.705Z,73.85
2018-07-01T00:25:04.425Z,74.13
2018-07-01T00:26:14.138Z,74.23
2018-07-01T00:27:23.837Z,74.55
2018-07-01T00:28:33.809Z,74.74
2018-07-01T00:29:43.790Z,74.32
2018-07-01T00:30:53.761Z,74.8
2018-07-01T00:32:03.723Z,75.18
2018-07-01T00:33:13.695Z,74.9
2018-07-01T00:34:23.137Z,75.28
2018-07-01T00:35:33.107Z,75.37
2018-07-01T00:36:43.062Z,75.79
2018-07-01T00:37:53.024Z,76.23
2018-07-01T00:39:02.474Z,75.85
2018-07-01T00:40:11.923Z,76.42
2018-07-01T00:41:21.372Z,76.52
2018-07-01T00:42:31.349Z,76.81
2018-07-01T00:43:41.313Z,76.52
2018-07-01T00:44:51.021Z,76.71
2018-07-01T00:46:00.740Z,77.09
2018-07-01T00:47:10.718Z,77.67
2018-07-01T00:48:20.436Z,77.38
2018-07-01T00:49:30.138Z,77.38
2018-07-01T00:50:40.104Z,77.19
2018-07-01T00:51:50.058Z,77.95
2018-07-01T00:52:59.765Z,77.86
2018-07-01T00:54:09.726Z,77.76
2018-07-01T00:55:19.689Z,78.33
2018-07-01T00:56:29.649Z,78.52
2018-07-01T00:57:39.616Z,78.14
2018-07-01T00:58:49.587Z,78.33
2018-07-01T00:59:59.541Z,78.91
2018-07-01T01:01:09.529Z,79
2018-07-01T01:02:19.508Z,79.28
2018-07-01T01:03:29.489Z,78.81
2018-07-01T01:04:39.478Z,79
2018-07-01T01:05:49.453Z,79.19
2018-07-01T01:06:58.901Z,79.48
2018-07-01T01:08:08.614Z,79.1
2018-07-01T01:09:18.569Z,79.86
2018-07-01T01:10:28.526Z,80.15
2018-07-01T01:11:38.458Z,79.77
2018-07-01T01:12:48.159Z,80.11
2018-07-01T01:13:57.866Z,80.11
2018-07-01T01:15:07.570Z,80.77
2018-07-01T01:16:17.533Z,80.77
2018-07-01T01:17:27.234Z,81.06
2018-07-01T01:18:37.200Z,81.54
2018-07-01T01:19:47.164Z,81.44
2018-07-01T01:20:56.612Z,80.68
2018-07-01T01:22:06.584Z,81.54
2018-07-01T01:23:16.571Z,81.73
2018-07-01T01:24:26.597Z,81.92
2018-07-01T01:25:36.566Z,81.82
2018-07-01T01:26:46.039Z,82.2
2018-07-01T01:27:56.004Z,82.01
2018-07-01T01:29:05.956Z,82.01
2018-07-01T01:30:15.685Z,82.3
2018-07-01T01:31:25.656Z,82.78
2018-07-01T01:32:35.096Z,82.78
2018-07-01T01:33:45.073Z,83.16
2018-07-01T01:34:54.776Z,83.44
2018-07-01T01:36:04.731Z,82.49
2018-07-01T01:37:14.706Z,83.06
2018-07-01T01:38:24.675Z,83.35
2018-07-01T01:39:34.120Z,84.11
2018-07-01T01:40:44.080Z,83.73
2018-07-01T01:41:53.796Z,83.73
2018-07-01T01:43:03.507Z,83.35
2018-07-01T01:44:13.215Z,84.11
2018-07-01T01:45:23.179Z,84.2
2018-07-01T01:46:33.147Z,84.69
2018-07-01T01:47:43.105Z,85.16
2018-07-01T01:48:53.064Z,84.69
2018-07-01T01:50:02.785Z,85.35
2018-07-01T01:51:12.778Z,85.16
2018-07-01T01:52:22.790Z,84.97
2018-07-01T01:53:32.760Z,85.16
2018-07-01T01:54:42.736Z,85.25
2018-07-01T01:55:52.440Z,85.83
2018-07-01T01:57:02.398Z,85.16
2018-07-01T01:58:12.120Z,85.64
2018-07-01T01:59:21.819Z,85.93
2018-07-01T02:00:31.515Z,85.64
2018-07-01T02:01:41.476Z,86.4
2018-07-01T02:02:51.436Z,86.65
2018-07-01T02:04:01.395Z,86.78
2018-07-01T02:05:11.106Z,86.49
2018-07-01T02:06:20.824Z,87.21
2018-07-01T02:07:30.797Z,87.12
2018-07-01T02:08:40.504Z,87.12
2018-07-01T02:09:50.459Z,87.5
2018-07-01T02:11:00.156Z,87.69
2018-07-01T02:12:09.867Z,87.12
2018-07-01T02:13:19.578Z,87.6
2018-07-01T02:14:29.537Z,87.6
2018-07-01T02:15:39.236Z,88.36
2018-07-01T02:16:48.937Z,88.07
2018-07-01T02:17:58.897Z,88.45
2018-07-01T02:19:08.854Z,88.45
2018-07-01T02:20:18.808Z,88.74
2018-07-01T02:21:28.511Z,88.74
2018-07-01T02:22:38.479Z,88.45
2018-07-01T02:23:48.434Z,88.74
2018-07-01T02:24:58.397Z,88.74
2018-07-01T02:26:08.370Z,89.31
2018-07-01T02:27:18.325Z,88.74
2018-07-01T02:28:28.283Z,88.84
2018-07-01T02:29:37.976Z,89.22
2018-07-01T02:30:47.950Z,89.36
2018-07-01T02:31:57.924Z,89.03
2018-07-01T02:33:07.935Z,89.79
2018-07-01T02:34:17.631Z,90.22
2018-07-01T02:35:27.949Z,90.41
2018-07-01T02:36:38.513Z,90.22
2018-07-01T02:37:48.500Z,90.98
2018-07-01T02:38:58.483Z,90.89
2018-07-01T02:40:08.449Z,90.7
2018-07-01T02:41:17.900Z,91.46
2018-07-01T02:42:27.615Z,91.84
2018-07-01T02:43:37.584Z,91.55
2018-07-01T02:44:47.280Z,92.03
2018-07-01T02:45:56.729Z,91.74
2018-07-01T02:47:06.700Z,91.36
2018-07-01T02:48:16.715Z,91.36
2018-07-01T02:49:26.420Z,91.65
2018-07-01T02:50:36.397Z,91.46
2018-07-01T02:51:46.129Z,92.03
2018-07-01T02:52:56.081Z,92.13
2018-07-01T02:54:06.048Z,92.13
2018-07-01T02:55:16.017Z,92.5
2018-07-01T02:56:26.004Z,92.69
2018-07-01T02:57:35.974Z,92.79
2018-07-01T02:58:45.429Z,93.17
2018-07-01T02:59:55.398Z,92.69
2018-07-01T03:01:05.379Z,92.79
2018-07-01T03:02:15.337Z,92.79
2018-07-01T03:03:25.330Z,92.79
2018-07-01T03:04:35.296Z,92.79
2018-07-01T03:05:45.274Z,92.6
2018-07-01T03:06:55.254Z,92.89
2018-07-01T03:08:05.241Z,92.69
2018-07-01T03:09:14.982Z,92.22
2018-07-01T03:10:24.684Z,92.41
2018-07-01T03:11:34.414Z,91.94
2018-07-01T03:12:44.391Z,92.13
2018-07-01T03:13:54.101Z,92.41
2018-07-01T03:15:03.804Z,92.6
2018-07-01T03:16:13.510Z,92.41
2018-07-01T03:17:23.210Z,92.6
2018-07-01T03:18:32.916Z,92.89
2018-07-01T03:19:42.881Z,92.79
2018-07-01T03:20:52.848Z,91.94
2018-07-01T03:22:02.576Z,92.13
2018-07-01T03:23:12.555Z,92.79
2018-07-01T03:24:22.515Z,92.6
2018-07-01T03:25:32.211Z,93.17
2018-07-01T03:26:42.172Z,93.27
2018-07-01T03:27:52.121Z,93.27
2018-07-01T03:29:02.073Z,93.08
2018-07-01T03:30:12.043Z,93.74
2018-07-01T03:31:22.010Z,93.93
2018-07-01T03:32:31.964Z,93.84
2018-07-01T03:33:41.932Z,93.93
2018-07-01T03:34:51.886Z,93.46
2018-07-01T03:36:01.849Z,93.55
2018-07-01T03:37:11.553Z,93.93
2018-07-01T03:38:21.521Z,93.93
2018-07-01T03:39:31.477Z,94.03
2018-07-01T03:40:41.171Z,94.03
2018-07-01T03:41:51.124Z,93.84
2018-07-01T03:43:00.818Z,94.13
2018-07-01T03:44:10.520Z,93.84
2018-07-01T03:45:20.480Z,93.84
2018-07-01T03:46:30.434Z,94.22
2018-07-01T03:47:40.406Z,93.55
2018-07-01T03:48:50.105Z,94.03
2018-07-01T03:50:00.075Z,94.22
2018-07-01T03:51:09.856Z,93.46
2018-07-01T03:52:19.562Z,93.74
2018-07-01T03:53:29.528Z,93.46
2018-07-01T03:54:39.476Z,93.65
2018-07-01T03:55:48.403Z,93.55
2018-07-01T03:56:58.109Z,93.37
2018-07-01T03:58:08.070Z,92.98
2018-07-01T03:59:18.051Z,93.17
2018-07-01T04:00:28.037Z,92.79
2018-07-01T04:01:38.336Z,93.27
2018-07-01T04:02:48.118Z,92.79
2018-07-01T04:03:58.085Z,92.6
2018-07-01T04:05:08.088Z,92.69
2018-07-01T04:06:18.070Z,92.98
2018-07-01T04:07:27.778Z,92.69
2018-07-01T04:08:37.749Z,92.13
2018-07-01T04:09:47.709Z,92.41
2018-07-01T04:10:57.672Z,92.36
2018-07-01T04:12:07.374Z,91.88
2018-07-01T04:13:17.080Z,91.69
2018-07-01T04:14:26.793Z,92.65
2018-07-01T04:15:36.745Z,92.46
2018-07-01T04:16:46.726Z,92.08
2018-07-01T04:17:56.675Z,92.27
2018-07-01T04:19:06.633Z,91.88
2018-07-01T04:20:16.587Z,91.98
2018-07-01T04:21:26.287Z,91.79
2018-07-01T04:22:36.254Z,91.69
2018-07-01T04:23:45.957Z,91.69
2018-07-01T04:24:55.913Z,91.03
2018-07-01T04:26:05.620Z,91.03
2018-07-01T04:27:15.594Z,91.03
2018-07-01T04:28:25.552Z,91.6
2018-07-01T04:29:35.552Z,90.5
2018-07-01T04:30:45.516Z,90.41
2018-07-01T04:31:55.475Z,90.45
2018-07-01T04:33:05.195Z,90.45
2018-07-01T04:34:15.161Z,89.93
2018-07-01T04:35:25.119Z,89.83
2018-07-01T04:36:35.077Z,89.74
2018-07-01T04:37:45.050Z,89.45
2018-07-01T04:38:55.025Z,89.07
2018-07-01T04:40:04.733Z,89.36
2018-07-01T04:41:14.690Z,89.36
2018-07-01T04:42:24.396Z,89.36
2018-07-01T04:43:34.124Z,88.98
2018-07-01T04:44:44.088Z,89.64
2018-07-01T04:45:54.052Z,87.07
2018-07-01T04:47:04.004Z,87.45
2018-07-01T04:48:13.979Z,86.78
2018-07-01T04:49:24.089Z,87.35
2018-07-01T04:50:34.071Z,86.88
2018-07-01T04:51:44.034Z,86.69
2018-07-01T04:52:53.994Z,86.35
2018-07-01T04:54:03.968Z,86.25
2018-07-01T04:55:14.183Z,85.77
2018-07-01T04:56:24.645Z,85.01
2018-07-01T04:57:34.612Z,85.58
2018-07-01T04:58:44.315Z,85.21
2018-07-01T04:59:54.293Z,85.01
2018-07-01T05:01:04.003Z,84.72
2018-07-01T05:02:14.100Z,84.82
2018-07-01T05:03:24.435Z,84.82
2018-07-01T05:04:34.393Z,84.53
2018-07-01T05:05:44.355Z,84.06
2018-07-01T05:06:54.350Z,84.06
2018-07-01T05:08:04.323Z,84.06
2018-07-01T05:09:14.286Z,83.67
2018-07-01T05:10:24.265Z,83.29
2018-07-01T05:11:33.981Z,84
2018-07-01T05:12:43.434Z,83.43
2018-07-01T05:13:53.460Z,82.29
2018-07-01T05:15:03.170Z,82.19
2018-07-01T05:16:13.150Z,81.81
2018-07-01T05:17:22.860Z,81.43
2018-07-01T05:18:32.556Z,80.38
2018-07-01T05:19:42.272Z,80.19
2018-07-01T05:20:51.976Z,80.76
2018-07-01T05:22:01.944Z,79.99
2018-07-01T05:23:11.921Z,79.8
2018-07-01T05:24:21.889Z,79.14
2018-07-01T05:25:31.672Z,79.43
2018-07-01T05:26:41.632Z,78.99
2018-07-01T05:27:51.607Z,79.17
2018-07-01T05:29:01.566Z,78.31
2018-07-01T05:30:11.272Z,78.41
2018-07-01T05:31:21.542Z,78.03
2018-07-01T05:32:31.243Z,77.65
2018-07-01T05:33:41.016Z,76.98
2018-07-01T05:34:51.323Z,76.12
2018-07-01T05:36:01.059Z,75.45
2018-07-01T05:37:11.039Z,75.54
2018-07-01T05:38:21.044Z,74.73
2018-07-01T05:39:30.754Z,74.05
2018-07-01T05:40:40.455Z,74.63
2018-07-01T05:41:50.155Z,74.05
2018-07-01T05:43:00.117Z,73.96
2018-07-01T05:44:10.146Z,73.77
2018-07-01T05:45:20.107Z,73.19
2018-07-01T05:46:30.067Z,72.72
2018-07-01T05:47:40.027Z,72.62
2018-07-01T05:48:49.986Z,72.33
2018-07-01T05:49:59.716Z,71.95
2018-07-01T05:51:09.425Z,72.28
2018-07-01T05:52:19.449Z,72.08
2018-07-01T05:53:29.424Z,71.7
2018-07-01T05:54:39.386Z,71.61
2018-07-01T05:55:49.394Z,71.7
2018-07-01T05:56:59.371Z,71.8
2018-07-01T05:58:09.480Z,71.7
2018-07-01T05:59:19.449Z,70.84
2018-07-01T06:00:29.172Z,71.13
2018-07-01T06:01:39.138Z,70.84
2018-07-01T06:02:49.114Z,70.84
2018-07-01T06:03:59.092Z,70.94
2018-07-01T06:05:08.836Z,70.65
2018-07-01T06:06:18.809Z,71.55
2018-07-01T06:07:28.786Z,71.73
2018-07-01T06:08:38.895Z,71.93
2018-07-01T06:09:49.268Z,72.12
2018-07-01T06:10:58.728Z,71.64
2018-07-01T06:12:08.442Z,71.73
2018-07-01T06:13:18.152Z,72.02
2018-07-01T06:14:28.116Z,72.22
2018-07-01T06:15:38.113Z,72.12
2018-07-01T06:16:48.316Z,72.54
2018-07-01T06:17:58.659Z,72.83
2018-07-01T06:19:08.376Z,73.11
2018-07-01T06:20:18.090Z,73.79
2018-07-01T06:21:28.062Z,73.69
2018-07-01T06:22:38.029Z,73.69
2018-07-01T06:23:47.734Z,73.88
2018-07-01T06:24:57.713Z,73.69
2018-07-01T06:26:07.681Z,74.45
2018-07-01T06:27:17.388Z,73.72
2018-07-01T06:28:27.112Z,73.44
2018-07-01T06:29:37.095Z,73.82
2018-07-01T06:30:47.068Z,73.63
2018-07-01T06:31:57.029Z,73.72
2018-07-01T06:33:07.002Z,73.91
2018-07-01T06:34:16.967Z,73.91
2018-07-01T06:35:26.678Z,73.34
2018-07-01T06:36:36.656Z,72.86
2018-07-01T06:37:46.622Z,72.86
2018-07-01T06:38:56.604Z,72.29
2018-07-01T06:40:06.320Z,72.29
2018-07-01T06:41:16.293Z,72.23
2018-07-01T06:42:26.013Z,70.98
2018-07-01T06:43:35.979Z,70.6
2018-07-01T06:44:45.961Z,70.41
2018-07-01T06:45:55.935Z,69.74
2018-07-01T06:47:05.905Z,69.77
2018-07-01T06:48:15.901Z,69.68
2018-07-01T06:49:25.914Z,68.52
2018-07-01T06:50:36.221Z,67.66
2018-07-01T06:51:46.197Z,67.57
2018-07-01T06:52:55.924Z,67.18
2018-07-01T06:54:05.638Z,66.61
2018-07-01T06:55:15.614Z,64.98
2018-07-01T06:56:25.658Z,65.08
2018-07-01T06:57:35.807Z,62.77
2018-07-01T06:58:45.777Z,64.02
2018-07-01T06:59:55.491Z,64.4
2018-07-01T07:01:05.492Z,64.89
2018-07-01T07:02:15.466Z,65.26
2018-07-01T07:03:25.326Z,65.2
2018-07-01T07:04:35.040Z,64.98
2018-07-01T07:05:45.015Z,64.31
2018-07-01T07:06:54.987Z,64.25
2018-07-01T07:08:05.119Z,64.25
2018-07-01T07:09:15.111Z,64.05
2018-07-01T07:10:24.827Z,63.48
2018-07-01T07:11:34.814Z,63.96
2018-07-01T07:12:44.771Z,64.05
2018-07-01T07:13:54.745Z,63.76
2018-07-01T07:15:04.718Z,63.96
2018-07-01T07:16:14.548Z,63.19
2018-07-01T07:17:24.311Z,63
2018-07-01T07:18:34.276Z,63.48
2018-07-01T07:19:44.005Z,63.38
2018-07-01T07:20:53.974Z,63
2018-07-01T07:22:03.683Z,62.81
2018-07-01T07:23:13.657Z,63.79
2018-07-01T07:24:23.621Z,62.74
2018-07-01T07:25:33.801Z,62.74
2018-07-01T07:26:43.799Z,62.65
2018-07-01T07:27:53.246Z,63.03
2018-07-01T07:29:03.234Z,63.03
2018-07-01T07:30:13.217Z,62.16
2018-07-01T07:31:23.193Z,61.11
2018-07-01T07:32:32.916Z,60.95
2018-07-01T07:33:42.646Z,61.4
2018-07-01T07:34:52.610Z,61.59
2018-07-01T07:36:02.320Z,62.26
2018-07-01T07:37:12.314Z,61.98
2018-07-01T07:38:22.305Z,62.07
2018-07-01T07:39:32.281Z,60.63
2018-07-01T07:40:42.239Z,58.23
2018-07-01T07:41:51.966Z,57.65
2018-07-01T07:43:01.940Z,57.37
2018-07-01T07:44:11.663Z,56.34
2018-07-01T07:45:21.761Z,55.38
2018-07-01T07:46:31.475Z,55.77
2018-07-01T07:47:41.189Z,56.82
2018-07-01T07:48:51.150Z,56.92
2018-07-01T07:50:01.118Z,57.21
2018-07-01T07:51:10.836Z,56.73
2018-07-01T07:52:20.991Z,57.11
2018-07-01T07:53:31.110Z,57.21
2018-07-01T07:54:40.565Z,56.85
2018-07-01T07:55:50.564Z,56.56
2018-07-01T07:57:00.010Z,55.69
2018-07-01T07:58:09.996Z,56.27
2018-07-01T07:59:19.968Z,56.85
2018-07-01T08:00:29.964Z,56.76
2018-07-01T08:01:39.676Z,57.14
2018-07-01T08:02:49.646Z,55.51
2018-07-01T08:03:59.364Z,55.51
2018-07-01T08:05:09.331Z,54.83
2018-07-01T08:06:19.299Z,55.51
2018-07-01T08:07:29.124Z,54.45
2018-07-01T08:08:38.503Z,54.64
2018-07-01T08:09:48.484Z,53.58
2018-07-01T08:10:57.939Z,53.46
2018-07-01T08:12:07.919Z,54.13
2018-07-01T08:13:17.876Z,54.52
2018-07-01T08:14:27.853Z,55
2018-07-01T08:15:37.829Z,55
2018-07-01T08:16:47.808Z,55.29
2018-07-01T08:17:57.780Z,53.85
2018-07-01T08:19:07.494Z,53.17
2018-07-01T08:20:17.477Z,53.94
2018-07-01T08:21:27.444Z,54.04
2018-07-01T08:22:37.406Z,54.23
2018-07-01T08:23:47.383Z,53.66
2018-07-01T08:24:57.342Z,53.94
2018-07-01T08:26:07.325Z,54.04
2018-07-01T08:27:17.389Z,53.75
2018-07-01T08:28:27.373Z,51.73
2018-07-01T08:29:37.337Z,51.45
2018-07-01T08:30:47.299Z,50.68
2018-07-01T08:31:57.270Z,49.62
2018-07-01T08:33:07.020Z,49.24
2018-07-01T08:34:16.729Z,48.47
2018-07-01T08:35:26.743Z,48.57
2018-07-01T08:36:36.729Z,47.71
2018-07-01T08:37:46.694Z,47.53
2018-07-01T08:38:56.403Z,47.72
2018-07-01T08:40:06.125Z,48.11
2018-07-01T08:41:16.251Z,48.23
2018-07-01T08:42:26.219Z,47.56
2018-07-01T08:43:36.218Z,47.2
2018-07-01T08:44:46.174Z,46.62
2018-07-01T08:45:56.135Z,46.62
2018-07-01T08:47:06.139Z,46.53
2018-07-01T08:48:15.872Z,46.33
2018-07-01T08:49:25.862Z,45.49
2018-07-01T08:50:35.826Z,44.93
2018-07-01T08:51:45.803Z,44.19
2018-07-01T08:52:55.525Z,41.97
2018-07-01T08:54:05.496Z,41.89
2018-07-01T08:55:15.469Z,40.19
2018-07-01T08:56:25.451Z,39.03
2018-07-01T08:57:35.418Z,39.43
2018-07-01T08:58:45.125Z,39.14
2018-07-01T08:59:54.838Z,38.49
2018-07-01T09:01:04.807Z,38.12
2018-07-01T09:02:14.783Z,37.37
2018-07-01T09:03:24.761Z,37.58
2018-07-01T09:04:34.478Z,37
2018-07-01T09:05:44.226Z,36.52
2018-07-01T09:06:54.220Z,36.15
2018-07-01T09:08:04.199Z,36.46
2018-07-01T09:09:13.904Z,36.05
2018-07-01T09:10:22.857Z,35.2
2018-07-01T09:11:32.839Z,35.31
2018-07-01T09:12:42.813Z,35.49
2018-07-01T09:13:52.781Z,35.29
2018-07-01T09:15:02.512Z,35.29
2018-07-01T09:16:12.239Z,35.78
2018-07-01T09:17:22.368Z,35.78
2018-07-01T09:18:32.361Z,37.12
2018-07-01T09:19:42.080Z,37.77
2018-07-01T09:20:51.805Z,37.65
2018-07-01T09:22:01.787Z,38.14
2018-07-01T09:23:11.764Z,37.85
2018-07-01T09:24:21.755Z,36.32
2018-07-01T09:25:31.740Z,36.42
2018-07-01T09:26:41.733Z,36.24
2018-07-01T09:27:51.720Z,35.36
2018-07-01T09:29:01.585Z,35.76
2018-07-01T09:30:11.801Z,35.28
2018-07-01T09:31:21.786Z,34.89
2018-07-01T09:32:31.527Z,35.64
2018-07-01T09:33:41.540Z,35.36
2018-07-01T09:34:51.538Z,35.26
2018-07-01T09:36:01.001Z,34.29
2018-07-01T09:37:11.005Z,34.58
2018-07-01T09:38:20.992Z,35.16
2018-07-01T09:39:30.983Z,34.2
2018-07-01T09:40:40.979Z,33.83
2018-07-01T09:41:50.947Z,34.13
2018-07-01T09:43:00.929Z,32.59
2018-07-01T09:44:10.908Z,32.59
2018-07-01T09:45:20.632Z,33.36
2018-07-01T09:46:30.097Z,34.21
2018-07-01T09:47:40.071Z,34.6
2018-07-01T09:48:50.071Z,35.26
2018-07-01T09:49:59.797Z,35.63
2018-07-01T09:51:09.519Z,35.71
2018-07-01T09:52:19.254Z,37.15
2018-07-01T09:53:28.729Z,38.46
2018-07-01T09:54:38.207Z,38.83
2018-07-01T09:55:47.942Z,37.41
2018-07-01T09:56:57.672Z,37.21
2018-07-01T09:58:07.733Z,36.46
2018-07-01T09:59:17.729Z,35.21
2018-07-01T10:00:27.469Z,34.94
2018-07-01T10:01:37.178Z,34.55
2018-07-01T10:02:47.155Z,34.18
2018-07-01T10:03:57.146Z,34.08
2018-07-01T10:05:06.863Z,33.42
2018-07-01T10:06:16.848Z,33.42
2018-07-01T10:07:26.578Z,33.04
2018-07-01T10:08:36.298Z,32.84
2018-07-01T10:09:46.341Z,33.22
2018-07-01T10:10:56.325Z,33.87
2018-07-01T10:12:05.899Z,34.26
2018-07-01T10:13:15.910Z,35.61
2018-07-01T10:14:25.895Z,35.59
2018-07-01T10:15:35.867Z,35.4
2018-07-01T10:16:45.850Z,35.21
2018-07-01T10:17:55.849Z,35.32
2018-07-01T10:19:05.831Z,34.55
2018-07-01T10:20:15.807Z,34.38
2018-07-01T10:21:25.017Z,33.33
2018-07-01T10:22:34.990Z,31.99
2018-07-01T10:23:44.975Z,30.17
2018-07-01T10:24:54.946Z,30.08
2018-07-01T10:26:04.951Z,30.28
2018-07-01T10:27:14.671Z,29.71
2018-07-01T10:28:24.434Z,29.33
2018-07-01T10:29:34.414Z,28.18
2018-07-01T10:30:44.417Z,27.22
2018-07-01T10:31:54.403Z,27.14
2018-07-01T10:33:04.434Z,27.43
2018-07-01T10:34:14.421Z,27.24
2018-07-01T10:35:24.154Z,26.67
2018-07-01T10:36:34.151Z,27.15
2018-07-01T10:37:43.883Z,26.1
2018-07-01T10:38:53.880Z,26.39
2018-07-01T10:40:03.621Z,26.09
2018-07-01T10:41:13.713Z,25.71
2018-07-01T10:42:23.721Z,24.95
2018-07-01T10:43:33.735Z,24.49
2018-07-01T10:44:43.467Z,24.49
2018-07-01T10:45:53.651Z,23.9
2018-07-01T10:47:03.651Z,23.43
2018-07-01T10:48:13.634Z,23.33
2018-07-01T10:49:23.609Z,23.52
2018-07-01T10:50:33.329Z,23.9
2018-07-01T10:51:43.555Z,23.79
2018-07-01T10:52:53.932Z,24.37
2018-07-01T10:54:03.906Z,23.59
2018-07-01T10:55:13.881Z,24.45
2018-07-01T10:56:23.868Z,24.34
2018-07-01T10:57:33.899Z,24.34
2018-07-01T10:58:44.128Z,24.13
2018-07-01T10:59:54.114Z,25.3
2018-07-01T11:01:03.826Z,25.67
2018-07-01T11:02:13.814Z,26.35
2018-07-01T11:03:23.814Z,27.21
2018-07-01T11:04:33.806Z,27.5
2018-07-01T11:05:43.527Z,27.5
2018-07-01T11:06:53.538Z,27.7
2018-07-01T11:08:03.474Z,28.47
2018-07-01T11:09:13.468Z,28.17
2018-07-01T11:10:23.188Z,28.45
2018-07-01T11:11:33.188Z,28.26
2018-07-01T11:12:43.379Z,28.17
2018-07-01T11:13:53.364Z,28.26
2018-07-01T11:15:03.334Z,28.18
2018-07-01T11:16:13.330Z,28.18
2018-07-01T11:17:23.052Z,28.76
2018-07-01T11:18:32.775Z,28.87
2018-07-01T11:19:42.238Z,28.97
2018-07-01T11:20:52.218Z,28.09
2018-07-01T11:22:02.208Z,28.49
2018-07-01T11:23:12.224Z,28.86
2018-07-01T11:24:22.208Z,29.44
2018-07-01T11:25:31.931Z,29.15
2018-07-01T11:26:41.950Z,29.15
2018-07-01T11:27:52.646Z,28.39
2018-07-01T11:29:02.645Z,28.11
2018-07-01T11:30:12.377Z,27.92
2018-07-01T11:31:22.108Z,27.15
2018-07-01T11:32:31.569Z,26.85
2018-07-01T11:33:41.625Z,27.32
2018-07-01T11:34:51.612Z,27.22
2018-07-01T11:36:01.708Z,27.71
2018-07-01T11:37:11.430Z,27.14
2018-07-01T11:38:21.498Z,26.95
2018-07-01T11:39:31.486Z,27.15
2018-07-01T11:40:41.230Z,26.76
2018-07-01T11:41:51.229Z,26.96
2018-07-01T11:43:01.212Z,27.07
2018-07-01T11:44:11.204Z,26.87
2018-07-01T11:45:21.185Z,26.01
2018-07-01T11:46:31.182Z,25.45
2018-07-01T11:47:41.178Z,25.95
2018-07-01T11:48:51.157Z,25.75
2018-07-01T11:50:01.141Z,24.89
2018-07-01T11:51:10.604Z,25.47
2018-07-01T11:52:20.684Z,25.18
2018-07-01T11:53:30.866Z,24.61
2018-07-01T11:54:40.594Z,24.52
2018-07-01T11:55:50.597Z,24.32
2018-07-01T11:57:00.322Z,24.79
2018-07-01T11:58:10.425Z,24.98
2018-07-01T11:59:20.497Z,24.96
2018-07-01T12:00:30.489Z,25.74
2018-07-01T12:01:40.485Z,25.14
2018-07-01T12:02:50.532Z,25.73
2018-07-01T12:04:00.510Z,26.38
2018-07-01T12:05:19.545Z,26.65
2018-07-01T12:06:29.792Z,26.27
2018-07-01T12:07:39.512Z,26.38
2018-07-01T12:08:49.499Z,26.2
2018-07-01T12:09:59.471Z,25.92
2018-07-01T12:11:09.470Z,26.57
2018-07-01T12:12:19.466Z,26.49
2018-07-01T12:13:28.940Z,25.89
2018-07-01T12:14:38.927Z,25.99
2018-07-01T12:15:48.959Z,26.09
2018-07-01T12:16:58.956Z,26.46
2018-07-01T12:18:08.686Z,25.89
2018-07-01T12:19:18.662Z,25.52
2018-07-01T12:20:28.638Z,24.95
2018-07-01T12:21:38.624Z,23.97
2018-07-01T12:22:48.628Z,24.48
2018-07-01T12:23:58.606Z,23.21
2018-07-01T12:25:08.596Z,23.02
2018-07-01T12:26:18.584Z,22.93
2018-07-01T12:27:28.618Z,22.82
2018-07-01T12:28:38.671Z,22.83
2018-07-01T12:29:48.845Z,22.82
2018-07-01T12:30:58.831Z,23.31
2018-07-01T12:32:08.317Z,23
2018-07-01T12:33:18.295Z,22.99
2018-07-01T12:34:27.784Z,23.19
2018-07-01T12:35:37.511Z,22.9
2018-07-01T12:36:47.493Z,22.8
2018-07-01T12:37:57.202Z,22.33
2018-07-01T12:39:07.196Z,22.34
2018-07-01T12:40:17.204Z,21.85
2018-07-01T12:41:27.190Z,21.86
2018-07-01T12:42:37.201Z,20.89
2018-07-01T12:43:46.668Z,20.51
2018-07-01T12:44:56.650Z,20.23
2018-07-01T12:46:06.375Z,19.65
2018-07-01T12:47:15.843Z,19.47
2018-07-01T12:48:25.812Z,19.38
2018-07-01T12:49:35.805Z,19.29
2018-07-01T12:50:45.534Z,18.99
2018-07-01T12:51:55.525Z,19.29
2018-07-01T12:53:05.254Z,19.39
2018-07-01T12:54:15.250Z,19.68
2018-07-01T12:55:25.228Z,19.2
2018-07-01T12:56:34.588Z,19.2
2018-07-01T12:57:44.635Z,18.91
2018-07-01T12:58:54.658Z,17.76
2018-07-01T13:00:04.392Z,17.77
2018-07-01T13:01:14.379Z,17.29
2018-07-01T13:02:24.196Z,17.97
2018-07-01T13:03:34.375Z,18.65
2018-07-01T13:04:44.358Z,19.31
2018-07-01T13:05:54.086Z,19.21
2018-07-01T13:07:04.124Z,19.89
2018-07-01T13:08:13.867Z,19.79
2018-07-01T13:09:23.753Z,19.79
2018-07-01T13:10:33.733Z,20
2018-07-01T13:11:43.731Z,19.02
2018-07-01T13:12:53.732Z,20
2018-07-01T13:14:03.735Z,20.07
2018-07-01T13:15:13.474Z,21.04
2018-07-01T13:16:23.195Z,21.12
2018-07-01T13:17:32.669Z,21.12
2018-07-01T13:18:42.670Z,21.8
2018-07-01T13:19:52.681Z,21.97
2018-07-01T13:21:02.677Z,22.36
2018-07-01T13:22:12.677Z,22.85
2018-07-01T13:23:22.674Z,22.83
2018-07-01T13:24:32.650Z,24.19
2018-07-01T13:25:42.734Z,24.56
2018-07-01T13:26:52.721Z,23.97
2018-07-01T13:28:02.468Z,24.56
2018-07-01T13:29:12.226Z,24.95
2018-07-01T13:30:21.956Z,25.03
2018-07-01T13:31:31.689Z,25.23
2018-07-01T13:32:41.729Z,26
2018-07-01T13:33:51.716Z,25.7
2018-07-01T13:35:01.438Z,26.38
2018-07-01T13:36:11.428Z,26.57
2018-07-01T13:37:21.423Z,26.67
2018-07-01T13:38:31.139Z,26.96
2018-07-01T13:39:40.866Z,27.14
2018-07-01T13:40:50.594Z,27.06
2018-07-01T13:42:00.324Z,26.76
2018-07-01T13:43:10.054Z,27.25
2018-07-01T13:44:19.779Z,27.15
2018-07-01T13:45:29.752Z,27.35
2018-07-01T13:46:39.208Z,27.15
2018-07-01T13:47:48.934Z,27.75
2018-07-01T13:48:58.914Z,26.98
2018-07-01T13:50:08.916Z,26.89
2018-07-01T13:51:18.641Z,26.81
2018-07-01T13:52:28.622Z,25.95
2018-07-01T13:53:38.349Z,26.14
2018-07-01T13:54:48.330Z,26.23
2018-07-01T13:55:58.145Z,26.33
2018-07-01T13:57:08.473Z,26.72
2018-07-01T13:58:18.754Z,26.98
2018-07-01T13:59:28.730Z,27.47
2018-07-01T14:00:38.356Z,27.76
2018-07-01T14:01:48.430Z,28.33
2018-07-01T14:02:58.437Z,28.04
2018-07-01T14:04:08.578Z,28.14
2018-07-01T14:05:19.054Z,28.14
2018-07-01T14:06:28.923Z,28.33
2018-07-01T14:07:39.361Z,27.93
2018-07-01T14:08:49.522Z,28.22
2018-07-01T14:09:59.262Z,27.07
2018-07-01T14:11:08.983Z,26.49
2018-07-01T14:12:18.990Z,26.7
2018-07-01T14:13:28.727Z,26.98
2018-07-01T14:14:38.438Z,26.71
2018-07-01T14:15:48.411Z,26.53
2018-07-01T14:16:58.397Z,25.47
2018-07-01T14:18:08.382Z,25.38
2018-07-01T14:19:18.376Z,25.2
2018-07-01T14:20:28.348Z,25.09
2018-07-01T14:21:38.072Z,25.01
2018-07-01T14:22:48.071Z,24.24
2018-07-01T14:23:57.801Z,23.47
2018-07-01T14:25:07.259Z,23.29
2018-07-01T14:26:16.728Z,23.11
2018-07-01T14:27:26.441Z,22.92
2018-07-01T14:28:36.188Z,22.74
2018-07-01T14:29:46.036Z,22.94
2018-07-01T14:30:56.287Z,22.64
2018-07-01T14:32:06.268Z,22.16
2018-07-01T14:33:16.323Z,22.06
2018-07-01T14:34:25.867Z,21.88
2018-07-01T14:35:35.985Z,22.27
2018-07-01T14:36:45.915Z,22.95
2018-07-01T14:37:55.895Z,23.32
2018-07-01T14:39:05.621Z,23.61
2018-07-01T14:40:15.603Z,24.48
2018-07-01T14:41:25.590Z,24.76
2018-07-01T14:42:35.323Z,25.03
2018-07-01T14:43:45.523Z,25.7
2018-07-01T14:44:55.260Z,25.97
2018-07-01T14:46:04.988Z,26.26
2018-07-01T14:47:15.001Z,26.65
2018-07-01T14:48:25.002Z,27.4
2018-07-01T14:49:34.990Z,27.78
2018-07-01T14:50:44.966Z,28.25
2018-07-01T14:51:54.944Z,29.32
2018-07-01T14:53:04.932Z,29.6
2018-07-01T14:54:14.944Z,29.5
2018-07-01T14:55:24.933Z,30.35
2018-07-01T14:56:34.915Z,30.82
2018-07-01T14:57:44.624Z,31.2
2018-07-01T14:58:54.617Z,31.39
2018-07-01T15:00:04.349Z,31.7
2018-07-01T15:01:13.820Z,32.07
2018-07-01T15:02:24.061Z,32.17
2018-07-01T15:03:34.046Z,31.78